Wednesday, July 30, 2014
17:20 UTC
  |  Log In   |  Register Free
Airport Search:

Northeast Philadelphia Airport
(KPNE)

Northeast Philadelphia Airport Diagram
No Airport Diagram Available

FAA data valid effective July 24, 2014 until September 18, 2014 (unless otherwise noted).

 
 
 
 
 
 
 
 
 
 
 
 
 
 

Current Aviation Weather for Northeast Philadelphia Airport (KPNE)

The most recent METAR observation for KPNE was updated at: 1754 UTC
METAR Summary (Translated METAR)
KPNE
281754Z AUTO 27019G24KT 10SM FEW047 28/16 A2960 RMK AO2 SLP021 T02830156 10283 20228 55002 TSNO
KLOM
(12.1 nm NW from KPNE)
281835Z AUTO 27008G17KT 240V310 10SM SCT047 SCT065 26/16 A2959 RMK AO1
TAF Summary (Translated TAF)
KPNE
301128Z 3012/3112 VRB03KT P6SM SCT080 FM301500 28006KT P6SM SCT050 FM310000 23006KT P6SM FEW050
  Airport Weather Conditions for KPNE

 Current Weather at PNE
78° F
Fair
Northwest winds at 6.9 mph
PNE NOAA Radar

Pressure: 30.05 in
Humidity: 35%
Wind: Northwest at 6.9 MPH (6 KT)
Dew Point: 48.0°F
Visibility: 10.00 mi


Airport Weather Forecast for KPNE

Translated METAR and TAF for KPNE
Translated METAR for KPNE (1713 UTC 30 July 2014)
found at http://aviationweather.gov/adds/metars/
 
METAR text: KPNE 301654Z 32006KT 10SM CLR 26/09 A3005 RMK AO2 SLP175 T02560089
Conditions at: KPNE (PHILADELPHIA/NE , PA, US) observed 1654 UTC 30 July 2014
Temperature: 25.6°C (78°F)
Dewpoint: 8.9°C (48°F) [RH = 35%]
Pressure (altimeter): 30.05 inches Hg (1017.7 mb)
[Sea-level pressure: 1017.5 mb]
Winds: from the NW (320 degrees) at 7 MPH (6 knots; 3.1 m/s)
Visibility: 10 or more miles (16+ km)
Ceiling: at least 12,000 feet AGL
Clouds: sky clear below 12,000 feet AGL
Weather: no significant weather observed at this time
Translated TAF for KPNE
Forecast for: KPNE (PHILADELPHIA/NE , PA, US)
TAF Text: KPNE 301128Z 3012/3112 VRB03KT P6SM SCT080
Forecast period: 1200 to 1500 UTC 30 July 2014
Forecast type: FROM: standard forecast or significant change
Winds: variable direction winds at 3 MPH (3 knots; 1.6 m/s)
Visibility: 6 or more miles (10+ km)
Clouds: scattered clouds at 8000 feet AGL
Weather: no significant weather forecast for this period
TAF Text: FM301500 28006KT P6SM SCT050
Forecast period: 1500 UTC 30 July 2014 to 0000 UTC 31 July 2014
Forecast type: FROM: standard forecast or significant change
Winds: from the W (280 degrees) at 7 MPH (6 knots; 3.1 m/s)
Visibility: 6 or more miles (10+ km)
Clouds: scattered clouds at 5000 feet AGL
Weather: no significant weather forecast for this period
TAF Text: FM310000 23006KT P6SM FEW050
Forecast period: 0000 to 1200 UTC 31 July 2014
Forecast type: FROM: standard forecast or significant change
Winds: from the SW (230 degrees) at 7 MPH (6 knots; 3.1 m/s)
Visibility: 6 or more miles (10+ km)
Clouds: few clouds at 5000 feet AGL
Weather: no significant weather forecast for this period

Find All Airport Services Find A Hotel Find A Rental Car Find A Golf Course Find A Restaurant $100 Hamburger



FBO's on the Field
FBO Company Facility Photos Services Transportation Aviation Fuel Prices: Prices include tax
Catering Weather Repair Courtesy Rental Type 100LL JetA JetA+ MOGAS 8087
 
Atlantic Aviation

This FBO has not yet been rated
FS:Texaco
Last Updated: Jul-29
Login to update fuel prices
SS:
Contact Atlantic AviationMore FBO Information
 
North Philadelphia Jet Center

Currently rated 5 by 2 people
FS:Avfuel
Last Updated: Jul-15
Login to update fuel prices
SS:
Contact North Philadelphia Jet CenterMore FBO Information
 
Add another FBO Facility Photos Catering Weather Repair Courtesy Rental Type 100LL JetA JetA+ MOGAS 8087
Services Transportation Aviation Fuel Prices: Prices include tax


GlobalAir.com Airport Resource Center model-print
model-print
model-print
model-print